This is the latest recevied weather packets stored in our database for station/object SP2ARK-10. If no packets are shown the sender has not sent any weather packets the latest 10 day(s).
| Time | Temp. | Humidity | Pressure | Rain* | Wind** | Luminosity | Snow |
|---|---|---|---|---|---|---|---|
| 1777446014 | 5° C | 65% | 1034.8 hPa | - | - | - | - |
| 1777444213 | 4.44° C | 69% | 1034.8 hPa | - | - | - | - |
| 1777443312 | 3.89° C | 70% | 1034.9 hPa | - | - | - | - |
| 1777442411 | 3.89° C | 72% | 1034.7 hPa | - | - | - | - |
| 1777441511 | 3.33° C | 72% | 1034.7 hPa | - | - | - | - |
| 1777440610 | 3.33° C | 75% | 1034.5 hPa | - | - | - | - |
| 1777439709 | 2.78° C | 77% | 1034.4 hPa | - | - | - | - |
| 1777438808 | 3.33° C | 77% | 1034.3 hPa | - | - | - | - |
| 1777437008 | 3.33° C | 76% | 1033.9 hPa | - | - | - | - |
| 1777423498 | 5.56° C | 63% | 1033.1 hPa | - | - | - | - |
| 1777416293 | 7.22° C | 58% | 1032.8 hPa | - | - | - | - |
| 1777411790 | 8.89° C | 56% | 1032.2 hPa | - | - | - | - |
| 1777408187 | 10° C | 56% | 1031.8 hPa | - | - | - | - |
| 1777407287 | 10° C | 56% | 1031.6 hPa | - | - | - | - |
| 1777406386 | 10° C | 56% | 1031.4 hPa | - | - | - | - |
| 1777404584 | 10.56° C | 56% | 1031.1 hPa | - | - | - | - |
| 1777403683 | 10.56° C | 56% | 1031 hPa | - | - | - | - |
| 1777399180 | 11.67° C | 57% | 1030.4 hPa | - | - | - | - |
| 1777397379 | 12.22° C | 56% | 1029.9 hPa | - | - | - | - |
| 1777395578 | 13.33° C | 56% | 1029.7 hPa | - | - | - | - |
| 1777393776 | 14.44° C | 52% | 1029.4 hPa | - | - | - | - |
| 1777392876 | 15° C | 51% | 1029.3 hPa | - | - | - | - |
| 1777391075 | 13.89° C | 50% | 1029.2 hPa | - | - | - | - |
| 1777390174 | 15° C | 49% | 1029.3 hPa | - | - | - | - |
| 1777389274 | 14.44° C | 49% | 1029.2 hPa | - | - | - | - |
* Rain since midnight (hover to see other rain measurements)
** Current wind speed in m/s (hover to see current wind gust speed)